createdAt,value
2022-12-04T00:00:38.369Z,38.07
2022-12-04T00:03:06.786Z,36.03
2022-12-04T00:05:35.222Z,41.40
2022-12-04T00:08:04.999Z,36.27
2022-12-04T00:10:33.379Z,35.97
2022-12-04T00:13:01.784Z,35.40
2022-12-04T00:15:30.145Z,38.33
2022-12-04T00:17:58.481Z,37.07
2022-12-04T00:20:27.268Z,39.23
2022-12-04T00:22:55.619Z,36.03
2022-12-04T00:25:25.301Z,35.57
2022-12-04T00:27:53.652Z,39.00
2022-12-04T00:30:22.014Z,38.37
2022-12-04T00:32:50.371Z,37.23
2022-12-04T00:35:18.701Z,36.57
2022-12-04T00:37:47.077Z,34.83
2022-12-04T00:40:15.652Z,37.83
2022-12-04T00:42:45.416Z,35.50
2022-12-04T00:45:13.749Z,35.33
2022-12-04T00:47:42.293Z,34.40
2022-12-04T00:50:11.128Z,37.00
2022-12-04T00:52:39.481Z,37.13
2022-12-04T00:55:08.347Z,31.20
2022-12-04T00:57:36.701Z,35.33
2022-12-04T01:00:07.106Z,36.77
2022-12-04T01:02:35.931Z,40.10
2022-12-04T01:05:04.399Z,34.63
2022-12-04T01:07:33.014Z,37.33
2022-12-04T01:10:01.393Z,35.07
2022-12-04T01:12:29.738Z,39.53
2022-12-04T01:14:58.094Z,38.70
2022-12-04T01:17:28.368Z,37.87
2022-12-04T01:19:56.899Z,35.53
2022-12-04T01:22:25.558Z,38.17
2022-12-04T01:24:57.074Z,40.03
2022-12-04T01:27:25.499Z,36.80
2022-12-04T01:29:54.061Z,37.77
2022-12-04T01:32:22.541Z,36.73
2022-12-04T01:34:52.451Z,36.50
2022-12-04T01:37:20.796Z,35.67
2022-12-04T01:39:49.124Z,34.47
2022-12-04T01:42:17.847Z,36.73
2022-12-04T01:44:47.094Z,38.07
2022-12-04T01:47:15.436Z,33.23
2022-12-04T01:49:46.768Z,36.67
2022-12-04T01:52:17.968Z,30.73
2022-12-04T01:54:48.179Z,35.90
2022-12-04T01:57:17.823Z,34.93
2022-12-04T01:59:47.522Z,37.67
2022-12-04T02:02:17.248Z,33.20
2022-12-04T02:04:45.935Z,33.77
2022-12-04T02:07:14.347Z,35.80
2022-12-04T02:09:45.475Z,36.43
2022-12-04T02:12:19.913Z,33.67
2022-12-04T02:14:53.319Z,35.00
2022-12-04T02:17:24.315Z,33.70
2022-12-04T02:20:10.748Z,31.93
2022-12-04T02:22:47.402Z,32.50
2022-12-04T02:25:22.660Z,32.73
2022-12-04T02:28:01.154Z,37.13
2022-12-04T02:30:30.930Z,32.73
2022-12-04T02:33:03.247Z,33.67
2022-12-04T02:35:32.924Z,35.23
2022-12-04T02:38:05.625Z,30.37
2022-12-04T02:40:39.014Z,33.30
2022-12-04T02:43:10.787Z,34.07
2022-12-04T02:45:41.461Z,36.10
2022-12-04T02:48:10.286Z,32.33
2022-12-04T02:50:41.328Z,33.13
2022-12-04T02:53:11.378Z,35.50
2022-12-04T02:55:41.772Z,34.20
2022-12-04T02:58:13.679Z,32.93
2022-12-04T03:00:43.321Z,31.90
2022-12-04T03:03:14.943Z,34.60
2022-12-04T03:05:45.114Z,33.83
2022-12-04T03:08:15.371Z,36.50
2022-12-04T03:10:46.092Z,34.50
2022-12-04T03:13:17.876Z,31.80
2022-12-04T03:15:48.556Z,30.60
2022-12-04T03:18:18.650Z,35.50
2022-12-04T03:20:48.158Z,34.00
2022-12-04T03:23:18.130Z,36.23
2022-12-04T03:25:51.523Z,34.23
2022-12-04T03:28:26.161Z,32.97
2022-12-04T03:30:57.236Z,33.87
2022-12-04T03:33:31.410Z,32.30
2022-12-04T03:36:02.123Z,34.97
2022-12-04T03:38:35.538Z,32.60
2022-12-04T03:41:05.520Z,35.13
2022-12-04T03:43:38.247Z,35.60
2022-12-04T03:46:10.914Z,33.60
2022-12-04T03:48:42.859Z,33.90
2022-12-04T03:51:16.085Z,33.27
2022-12-04T03:53:46.222Z,32.13
2022-12-04T03:56:17.155Z,32.87
2022-12-04T03:58:48.529Z,34.83
2022-12-04T04:01:19.131Z,32.17
2022-12-04T04:03:50.216Z,34.97
2022-12-04T04:06:20.818Z,34.87
2022-12-04T04:08:51.713Z,34.00
2022-12-04T04:11:23.652Z,31.60
2022-12-04T04:14:12.775Z,32.73
2022-12-04T04:17:02.955Z,34.27
2022-12-04T04:19:51.707Z,32.40
2022-12-04T04:22:38.817Z,34.73
2022-12-04T04:25:09.678Z,33.37
2022-12-04T04:27:38.317Z,29.77
2022-12-04T04:30:09.212Z,33.37
2022-12-04T04:32:40.206Z,32.57
2022-12-04T04:35:13.315Z,31.63
2022-12-04T04:37:44.454Z,29.67
2022-12-04T04:40:15.874Z,31.73
2022-12-04T04:42:46.748Z,29.10
2022-12-04T04:45:17.820Z,30.23
2022-12-04T04:47:47.260Z,34.97
2022-12-04T04:50:17.273Z,30.83
2022-12-04T04:52:48.000Z,28.50
2022-12-04T04:55:16.721Z,30.53
2022-12-04T04:57:45.132Z,28.23
2022-12-04T05:00:15.774Z,30.97
2022-12-04T05:02:45.805Z,31.43
2022-12-04T05:05:14.830Z,25.70
2022-12-04T05:07:43.200Z,25.83
2022-12-04T05:10:12.245Z,27.57
2022-12-04T05:12:40.580Z,28.33
2022-12-04T05:15:09.566Z,24.67
2022-12-04T05:17:38.135Z,25.87
2022-12-04T05:20:08.795Z,27.77
2022-12-04T05:22:38.521Z,28.37
2022-12-04T05:25:07.632Z,28.70
2022-12-04T05:27:35.967Z,25.97
2022-12-04T05:30:04.390Z,24.93
2022-12-04T05:32:32.686Z,28.33
2022-12-04T05:35:01.662Z,23.33
2022-12-04T05:37:33.667Z,24.70
2022-12-04T05:40:02.002Z,25.17
2022-12-04T05:42:30.299Z,25.70
2022-12-04T05:44:58.642Z,24.17
2022-12-04T05:47:27.005Z,23.90
2022-12-04T05:49:55.596Z,25.97
2022-12-04T05:52:24.054Z,26.17
2022-12-04T05:54:53.743Z,26.63
2022-12-04T05:57:25.290Z,27.53
2022-12-04T05:59:54.174Z,27.73
2022-12-04T06:02:22.946Z,26.80
2022-12-04T06:04:51.288Z,27.47
2022-12-04T06:07:19.658Z,26.77
2022-12-04T06:09:48.013Z,26.80
2022-12-04T06:12:17.756Z,25.17
2022-12-04T06:14:46.100Z,27.17
2022-12-04T06:17:14.437Z,22.80
2022-12-04T06:19:42.781Z,26.83
2022-12-04T06:22:11.128Z,24.30
2022-12-04T06:24:40.554Z,25.20
2022-12-04T06:27:27.396Z,23.93
2022-12-04T06:29:58.046Z,22.63
2022-12-04T06:32:26.807Z,21.73
2022-12-04T06:34:55.722Z,27.13
2022-12-04T06:37:25.165Z,21.67
2022-12-04T06:39:53.815Z,23.27
2022-12-04T06:42:22.342Z,20.93
2022-12-04T06:44:51.002Z,23.73
2022-12-04T06:47:20.736Z,22.80
2022-12-04T06:49:50.894Z,23.40
2022-12-04T06:52:19.596Z,23.60
2022-12-04T06:54:47.925Z,22.97
2022-12-04T06:57:16.302Z,22.87
2022-12-04T06:59:44.636Z,22.87
2022-12-04T07:02:13.061Z,25.07
2022-12-04T07:04:42.806Z,23.00
2022-12-04T07:07:11.196Z,24.07
2022-12-04T07:09:39.683Z,22.03
2022-12-04T07:12:08.217Z,23.77
2022-12-04T07:14:36.557Z,22.87
2022-12-04T07:17:04.986Z,22.53
2022-12-04T07:19:33.348Z,23.23
2022-12-04T07:22:03.041Z,21.03
2022-12-04T07:24:31.381Z,22.03
2022-12-04T07:26:59.771Z,23.37
2022-12-04T07:29:28.170Z,22.60
2022-12-04T07:31:56.623Z,22.07
2022-12-04T07:34:26.199Z,21.37
2022-12-04T07:36:54.548Z,21.97
2022-12-04T07:39:24.329Z,22.97
2022-12-04T07:41:52.690Z,21.37
2022-12-04T07:44:21.052Z,21.87
2022-12-04T07:46:49.424Z,20.57
2022-12-04T07:49:18.110Z,18.77
2022-12-04T07:51:46.466Z,22.57
2022-12-04T07:54:14.856Z,21.97
2022-12-04T07:56:44.600Z,19.67
2022-12-04T07:59:12.984Z,19.63
2022-12-04T08:01:41.426Z,21.30
2022-12-04T08:04:10.000Z,20.47
2022-12-04T08:06:38.572Z,21.93
2022-12-04T08:09:10.051Z,19.27
2022-12-04T08:11:38.883Z,18.53
2022-12-04T08:14:09.860Z,19.67
2022-12-04T08:16:38.401Z,19.47
2022-12-04T08:19:07.124Z,18.70
2022-12-04T08:21:35.980Z,19.97
2022-12-04T08:24:04.451Z,18.43
2022-12-04T08:26:33.846Z,20.57
2022-12-04T08:29:02.544Z,19.53
2022-12-04T08:31:33.810Z,16.63
2022-12-04T08:34:03.228Z,15.27
2022-12-04T08:36:32.187Z,18.23
2022-12-04T08:39:02.422Z,16.77
2022-12-04T08:41:30.797Z,16.10
2022-12-04T08:43:59.628Z,19.47
2022-12-04T08:46:28.807Z,16.20
2022-12-04T08:48:59.079Z,18.00
2022-12-04T08:51:28.597Z,15.20
2022-12-04T08:53:57.440Z,14.50
2022-12-04T08:56:26.504Z,16.57
2022-12-04T08:58:55.140Z,18.03
2022-12-04T09:01:23.566Z,17.90
2022-12-04T09:03:52.017Z,16.70
2022-12-04T09:06:22.166Z,17.37
2022-12-04T09:08:53.283Z,16.77
2022-12-04T09:11:22.394Z,18.00
2022-12-04T09:13:50.736Z,19.90
2022-12-04T09:16:20.380Z,18.80
2022-12-04T09:18:48.775Z,17.77
2022-12-04T09:21:17.963Z,19.60
2022-12-04T09:23:47.724Z,18.23
2022-12-04T09:26:21.622Z,18.80
2022-12-04T09:28:50.376Z,17.17
2022-12-04T09:31:19.736Z,17.33
2022-12-04T09:33:48.251Z,17.13
2022-12-04T09:36:17.099Z,18.03
2022-12-04T09:38:46.376Z,17.60
2022-12-04T09:41:25.810Z,20.00
2022-12-04T09:43:57.935Z,17.77
2022-12-04T09:46:28.929Z,21.30
2022-12-04T09:48:59.006Z,18.27
2022-12-04T09:51:27.986Z,21.90
2022-12-04T09:53:58.376Z,20.60
2022-12-04T09:56:30.558Z,19.53
2022-12-04T09:59:01.249Z,21.33
2022-12-04T10:01:32.000Z,20.70
2022-12-04T10:04:06.017Z,20.70
2022-12-04T10:06:37.802Z,21.10
2022-12-04T10:09:09.652Z,19.43
2022-12-04T10:11:44.320Z,17.57
2022-12-04T10:14:20.547Z,22.63
2022-12-04T10:16:55.111Z,21.40
2022-12-04T10:19:29.489Z,20.03
2022-12-04T10:22:03.304Z,21.07
2022-12-04T10:24:36.712Z,22.03
2022-12-04T10:27:10.980Z,21.53
2022-12-04T10:29:40.519Z,20.73
2022-12-04T10:32:17.584Z,18.63
2022-12-04T10:34:46.219Z,18.87
2022-12-04T10:37:15.726Z,20.17
2022-12-04T10:39:46.682Z,20.17
2022-12-04T10:42:25.336Z,20.33
2022-12-04T10:44:53.828Z,20.63
2022-12-04T10:47:24.001Z,19.43
2022-12-04T10:49:56.884Z,22.93
2022-12-04T10:52:25.534Z,19.83
2022-12-04T10:54:55.460Z,20.97
2022-12-04T10:57:35.896Z,20.27
2022-12-04T11:00:06.232Z,21.80
2022-12-04T11:02:35.553Z,20.73
2022-12-04T11:05:05.363Z,20.33
2022-12-04T11:07:36.975Z,19.63
2022-12-04T11:10:07.559Z,21.23
2022-12-04T11:12:37.541Z,19.97
2022-12-04T11:15:14.066Z,18.27
2022-12-04T11:17:42.454Z,20.63
2022-12-04T11:20:16.956Z,20.27
2022-12-04T11:22:51.168Z,21.93
2022-12-04T11:25:20.541Z,22.70
2022-12-04T11:27:51.550Z,22.80
2022-12-04T11:30:21.614Z,23.20
2022-12-04T11:32:50.087Z,21.57
2022-12-04T11:35:19.737Z,22.30
2022-12-04T11:37:54.472Z,22.20
2022-12-04T11:40:23.075Z,20.30
2022-12-04T11:43:01.417Z,22.03
2022-12-04T11:45:29.798Z,21.60
2022-12-04T11:47:59.034Z,22.73
2022-12-04T11:50:31.213Z,23.93
2022-12-04T11:53:04.307Z,25.50
2022-12-04T11:55:36.014Z,24.60
2022-12-04T11:58:22.823Z,23.97
2022-12-04T12:00:54.599Z,22.73
2022-12-04T12:03:24.928Z,27.63
2022-12-04T12:06:18.230Z,22.67
2022-12-04T12:09:01.927Z,22.83
2022-12-04T12:11:33.872Z,28.83
2022-12-04T12:14:09.407Z,24.70
2022-12-04T12:16:48.550Z,26.27
2022-12-04T12:19:29.801Z,26.47
2022-12-04T12:22:05.480Z,24.97
2022-12-04T12:24:45.566Z,26.27
2022-12-04T12:27:34.795Z,22.97
2022-12-04T12:30:06.612Z,24.13
2022-12-04T12:32:42.530Z,23.97
2022-12-04T12:35:18.633Z,22.50
2022-12-04T12:37:49.577Z,26.13
2022-12-04T12:40:25.870Z,24.40
2022-12-04T12:42:58.401Z,23.30
2022-12-04T12:45:31.355Z,23.47
2022-12-04T12:48:03.509Z,24.63
2022-12-04T12:50:35.851Z,25.93
2022-12-04T12:53:07.364Z,24.80
2022-12-04T12:55:38.012Z,26.10
2022-12-04T12:58:09.173Z,24.70
2022-12-04T13:00:41.141Z,25.57
2022-12-04T13:03:19.985Z,24.90
2022-12-04T13:05:50.019Z,22.83
2022-12-04T13:08:23.397Z,24.10
2022-12-04T13:10:55.605Z,24.00
2022-12-04T13:13:26.571Z,26.70
2022-12-04T13:15:58.885Z,25.17
2022-12-04T13:18:29.674Z,21.63
2022-12-04T13:21:01.136Z,25.00
2022-12-04T13:23:40.689Z,23.58
2022-12-04T13:26:12.379Z,23.40
2022-12-04T13:28:48.302Z,23.70
2022-12-04T13:31:25.072Z,24.13
2022-12-04T13:34:01.555Z,25.47
2022-12-04T13:36:50.191Z,23.87
2022-12-04T13:39:38.288Z,23.07
2022-12-04T13:42:07.860Z,25.47
2022-12-04T13:44:37.260Z,23.45
2022-12-04T13:47:07.841Z,25.10
2022-12-04T13:49:37.137Z,20.63
2022-12-04T13:52:07.365Z,23.07
2022-12-04T13:54:36.939Z,25.23
2022-12-04T13:57:20.979Z,22.20
2022-12-04T13:59:50.181Z,23.07
2022-12-04T14:02:24.378Z,22.57
2022-12-04T14:04:58.208Z,26.43
2022-12-04T14:07:31.911Z,23.80
2022-12-04T14:10:01.943Z,25.17
2022-12-04T14:12:31.768Z,21.73
2022-12-04T14:15:00.911Z,21.47
2022-12-04T14:17:31.971Z,20.33
2022-12-04T14:20:07.386Z,21.90
2022-12-04T14:22:44.110Z,21.30
2022-12-04T14:25:26.968Z,21.23
2022-12-04T14:27:55.694Z,20.50
2022-12-04T14:30:24.990Z,21.40
2022-12-04T14:32:58.002Z,18.87
2022-12-04T14:35:27.403Z,19.53
2022-12-04T14:37:58.161Z,19.73
2022-12-04T14:40:27.651Z,23.50
2022-12-04T14:42:56.506Z,20.07
2022-12-04T14:45:30.957Z,17.40
2022-12-04T14:48:09.090Z,20.87
2022-12-04T14:50:42.899Z,18.77
2022-12-04T14:53:15.195Z,17.57
2022-12-04T14:55:48.270Z,19.50
2022-12-04T14:58:34.690Z,19.10
2022-12-04T15:01:04.145Z,18.87
2022-12-04T15:03:37.443Z,21.13
2022-12-04T15:06:07.315Z,20.03
2022-12-04T15:08:35.838Z,20.50
2022-12-04T15:11:25.417Z,18.83
2022-12-04T15:13:53.749Z,18.83
2022-12-04T15:16:23.181Z,18.93
2022-12-04T15:18:56.611Z,20.63
2022-12-04T15:21:26.397Z,19.80
2022-12-04T15:23:54.743Z,17.43
2022-12-04T15:26:26.832Z,20.93
2022-12-04T15:28:56.613Z,18.13
2022-12-04T15:31:25.810Z,17.30
2022-12-04T15:33:55.099Z,18.33
2022-12-04T15:36:31.806Z,21.90
2022-12-04T15:39:02.511Z,19.50
2022-12-04T15:41:32.505Z,19.77
2022-12-04T15:44:01.172Z,20.03
2022-12-04T15:46:32.856Z,18.00
2022-12-04T15:49:17.893Z,18.37
2022-12-04T15:51:48.488Z,18.53
2022-12-04T15:54:18.811Z,20.93
2022-12-04T15:56:47.154Z,18.63
2022-12-04T15:59:18.876Z,20.20
2022-12-04T16:01:47.311Z,23.13
2022-12-04T16:04:22.607Z,21.73
2022-12-04T16:06:53.767Z,21.50
2022-12-04T16:09:23.643Z,23.23
2022-12-04T16:11:59.360Z,22.03
2022-12-04T16:14:27.961Z,22.40
2022-12-04T16:17:02.562Z,20.70
2022-12-04T16:19:35.146Z,24.30
2022-12-04T16:22:05.842Z,22.10
2022-12-04T16:24:34.263Z,21.87
2022-12-04T16:27:04.480Z,23.80
2022-12-04T16:29:32.816Z,24.23
2022-12-04T16:32:03.312Z,22.90
2022-12-04T16:34:32.144Z,26.13
2022-12-04T16:37:01.122Z,24.53
2022-12-04T16:39:30.852Z,23.90
2022-12-04T16:41:59.201Z,23.83
2022-12-04T16:44:27.544Z,25.33
2022-12-04T16:46:55.934Z,26.17
2022-12-04T16:49:24.324Z,27.17
2022-12-04T16:51:52.631Z,25.17
2022-12-04T16:54:21.034Z,32.37
2022-12-04T16:56:50.758Z,35.57
2022-12-04T16:59:19.164Z,36.93
2022-12-04T17:01:48.490Z,33.53
2022-12-04T17:04:17.234Z,36.57
2022-12-04T17:06:46.074Z,40.20
2022-12-04T17:09:14.554Z,39.37
2022-12-04T17:11:43.055Z,36.00
2022-12-04T17:14:13.099Z,35.80
2022-12-04T17:16:42.972Z,31.47
2022-12-04T17:19:12.047Z,30.47
2022-12-04T17:21:41.866Z,33.60
2022-12-04T17:24:10.550Z,32.07
2022-12-04T17:26:38.932Z,33.87
2022-12-04T17:29:07.434Z,30.50
2022-12-04T17:31:37.631Z,30.47
2022-12-04T17:34:06.230Z,27.20
2022-12-04T17:36:34.594Z,29.80
2022-12-04T17:39:03.299Z,29.60
2022-12-04T17:41:31.636Z,28.57
2022-12-04T17:44:01.118Z,28.27
2022-12-04T17:46:29.624Z,29.47
2022-12-04T17:49:03.895Z,28.63
2022-12-04T17:51:35.866Z,27.63
2022-12-04T17:54:04.397Z,28.77
2022-12-04T17:56:33.060Z,31.13
2022-12-04T17:59:01.408Z,33.83
2022-12-04T18:01:30.946Z,30.20
2022-12-04T18:04:01.874Z,35.57
2022-12-04T18:06:31.142Z,37.17
2022-12-04T18:08:59.563Z,33.70
2022-12-04T18:11:29.185Z,38.00
2022-12-04T18:13:58.289Z,34.07
2022-12-04T18:16:27.465Z,36.33
2022-12-04T18:18:56.094Z,36.20
2022-12-04T18:21:25.926Z,36.37
2022-12-04T18:23:54.288Z,36.50
2022-12-04T18:26:23.854Z,38.63
2022-12-04T18:28:53.267Z,37.07
2022-12-04T18:31:21.640Z,37.23
2022-12-04T18:33:50.224Z,36.73
2022-12-04T18:36:19.407Z,35.73
2022-12-04T18:38:49.700Z,36.50
2022-12-04T18:41:18.029Z,35.83
2022-12-04T18:43:46.791Z,39.13
2022-12-04T18:46:16.313Z,37.13
2022-12-04T18:48:45.500Z,36.27
2022-12-04T18:51:18.343Z,40.30
2022-12-04T18:53:46.769Z,42.53
2022-12-04T18:56:17.375Z,46.83
2022-12-04T18:58:46.550Z,42.40
2022-12-04T19:01:16.311Z,44.43
2022-12-04T19:03:44.708Z,39.43
2022-12-04T19:06:13.242Z,43.20
2022-12-04T19:08:43.388Z,47.33
2022-12-04T19:11:12.877Z,46.83
2022-12-04T19:13:42.905Z,48.87
2022-12-04T19:16:13.113Z,43.63
2022-12-04T19:18:42.187Z,47.03
2022-12-04T19:21:10.976Z,42.67
2022-12-04T19:23:39.474Z,45.67
2022-12-04T19:26:08.051Z,52.30
2022-12-04T19:28:37.281Z,49.37
2022-12-04T19:31:07.037Z,50.00
2022-12-04T19:33:35.442Z,48.50
2022-12-04T19:36:05.084Z,40.73
2022-12-04T19:38:34.049Z,49.70
2022-12-04T19:41:06.334Z,44.57
2022-12-04T19:43:34.717Z,50.13
2022-12-04T19:46:03.440Z,45.83
2022-12-04T19:48:33.223Z,50.00
2022-12-04T19:51:05.189Z,45.87
2022-12-04T19:53:39.181Z,42.97
2022-12-04T19:56:10.273Z,46.20
2022-12-04T19:58:38.941Z,45.60
2022-12-04T20:01:08.074Z,48.10
2022-12-04T20:03:38.274Z,49.43
2022-12-04T20:06:08.299Z,46.43
2022-12-04T20:08:37.197Z,48.83
2022-12-04T20:11:05.783Z,44.00
2022-12-04T20:13:36.292Z,44.67
2022-12-04T20:16:05.551Z,48.17
2022-12-04T20:18:34.015Z,47.87
2022-12-04T20:21:04.943Z,46.60
2022-12-04T20:23:33.315Z,44.47
2022-12-04T20:26:05.154Z,45.43
2022-12-04T20:28:33.533Z,45.57
2022-12-04T20:31:02.349Z,47.07
2022-12-04T20:33:30.809Z,50.20
2022-12-04T20:36:02.053Z,48.07
2022-12-04T20:38:31.829Z,44.40
2022-12-04T20:41:03.970Z,46.77
2022-12-04T20:43:32.372Z,48.43
2022-12-04T20:46:00.948Z,45.83
2022-12-04T20:48:29.816Z,51.87
2022-12-04T20:50:58.139Z,42.93
2022-12-04T20:53:26.633Z,46.40
2022-12-04T20:55:56.733Z,45.17
2022-12-04T20:58:25.458Z,43.90
2022-12-04T21:00:53.927Z,45.80
2022-12-04T21:03:22.444Z,40.83
2022-12-04T21:05:50.951Z,45.87
2022-12-04T21:08:39.296Z,48.30
2022-12-04T21:11:09.123Z,48.40
2022-12-04T21:13:56.528Z,47.47
2022-12-04T21:16:24.993Z,43.80
2022-12-04T21:18:53.508Z,40.57
2022-12-04T21:21:22.471Z,44.90
2022-12-04T21:23:51.681Z,43.73
2022-12-04T21:26:22.428Z,46.90
2022-12-04T21:28:50.873Z,42.30
2022-12-04T21:31:19.245Z,41.10
2022-12-04T21:33:47.640Z,38.60
2022-12-04T21:36:16.108Z,45.53
2022-12-04T21:38:44.452Z,42.73
2022-12-04T21:41:34.122Z,41.10
2022-12-04T21:44:05.714Z,41.57
2022-12-04T21:46:34.212Z,40.43
2022-12-04T21:49:03.348Z,36.33
2022-12-04T21:51:56.152Z,41.63
2022-12-04T21:54:20.784Z,40.30
2022-12-04T21:56:49.219Z,41.30
2022-12-04T21:59:19.170Z,39.03
2022-12-04T22:01:47.614Z,40.73
2022-12-04T22:04:16.023Z,38.83
2022-12-04T22:06:44.644Z,38.17
2022-12-04T22:09:13.875Z,37.40
2022-12-04T22:11:42.606Z,43.17
2022-12-04T22:14:11.287Z,40.40
2022-12-04T22:16:42.675Z,38.80
2022-12-04T22:19:12.016Z,43.03
2022-12-04T22:21:40.823Z,42.50
2022-12-04T22:24:10.467Z,41.67
2022-12-04T22:26:39.290Z,38.17
2022-12-04T22:29:41.632Z,40.47
2022-12-04T22:31:58.030Z,40.33
2022-12-04T22:34:26.398Z,40.87
2022-12-04T22:36:54.704Z,45.27
2022-12-04T22:39:23.086Z,38.37
2022-12-04T22:41:51.468Z,44.67
2022-12-04T22:44:19.811Z,42.77
2022-12-04T22:46:48.217Z,44.70
2022-12-04T22:49:18.034Z,45.37
2022-12-04T22:51:46.412Z,39.73
2022-12-04T22:54:15.930Z,44.77
2022-12-04T22:56:44.640Z,44.80
2022-12-04T22:59:13.146Z,43.40
2022-12-04T23:01:41.505Z,39.77
2022-12-04T23:04:09.861Z,41.00
2022-12-04T23:06:40.023Z,40.83
2022-12-04T23:09:09.497Z,40.20
2022-12-04T23:11:38.107Z,42.83
2022-12-04T23:14:07.107Z,40.67
2022-12-04T23:16:37.166Z,39.53
2022-12-04T23:19:06.521Z,46.93
2022-12-04T23:21:35.154Z,41.13
2022-12-04T23:24:05.032Z,45.13
2022-12-04T23:26:34.384Z,44.37
2022-12-04T23:29:03.221Z,40.30
2022-12-04T23:31:32.335Z,39.13
2022-12-04T23:34:01.245Z,40.37
2022-12-04T23:36:29.876Z,45.27
2022-12-04T23:38:58.727Z,43.63
2022-12-04T23:41:30.262Z,42.23
2022-12-04T23:43:59.072Z,40.13
2022-12-04T23:46:28.937Z,42.43
2022-12-04T23:48:57.419Z,43.47
2022-12-04T23:51:26.119Z,45.27
2022-12-04T23:53:54.851Z,40.97
2022-12-04T23:56:23.948Z,40.67
2022-12-04T23:58:54.747Z,41.80
